sensor_id;sensor_type;location;lat;lon;timestamp;P1;durP1;ratioP1;P2;durP2;ratioP2
4963;SDS011;2497;47.410;9.740;2023-04-02T00:01:44;3.43;;;2.20;;
4963;SDS011;2497;47.410;9.740;2023-04-02T00:04:18;3.30;;;2.10;;
4963;SDS011;2497;47.410;9.740;2023-04-02T00:06:54;3.33;;;2.13;;
4963;SDS011;2497;47.410;9.740;2023-04-02T00:09:42;5.07;;;2.40;;
4963;SDS011;2497;47.410;9.740;2023-04-02T00:12:17;4.23;;;2.30;;
4963;SDS011;2497;47.410;9.740;2023-04-02T00:14:46;5.80;;;3.13;;
4963;SDS011;2497;47.410;9.740;2023-04-02T00:17:15;11.03;;;3.57;;
4963;SDS011;2497;47.410;9.740;2023-04-02T00:19:44;5.27;;;3.27;;
4963;SDS011;2497;47.410;9.740;2023-04-02T00:22:17;4.70;;;2.50;;
4963;SDS011;2497;47.410;9.740;2023-04-02T00:24:45;2.73;;;2.00;;
4963;SDS011;2497;47.410;9.740;2023-04-02T00:27:15;3.23;;;2.03;;
4963;SDS011;2497;47.410;9.740;2023-04-02T00:29:45;4.90;;;2.00;;
4963;SDS011;2497;47.410;9.740;2023-04-02T00:32:15;4.07;;;1.80;;
4963;SDS011;2497;47.410;9.740;2023-04-02T00:34:46;3.43;;;1.90;;
4963;SDS011;2497;47.410;9.740;2023-04-02T00:37:14;2.37;;;1.97;;
4963;SDS011;2497;47.410;9.740;2023-04-02T00:39:48;2.47;;;1.70;;
4963;SDS011;2497;47.410;9.740;2023-04-02T00:42:18;4.47;;;2.63;;
4963;SDS011;2497;47.410;9.740;2023-04-02T00:44:46;4.50;;;1.87;;
4963;SDS011;2497;47.410;9.740;2023-04-02T00:47:17;2.80;;;2.07;;
4963;SDS011;2497;47.410;9.740;2023-04-02T00:49:47;4.17;;;2.67;;
4963;SDS011;2497;47.410;9.740;2023-04-02T00:52:20;3.13;;;1.93;;
4963;SDS011;2497;47.410;9.740;2023-04-02T00:54:51;3.43;;;2.00;;
4963;SDS011;2497;47.410;9.740;2023-04-02T00:57:28;3.20;;;1.90;;
4963;SDS011;2497;47.410;9.740;2023-04-02T00:59:58;4.10;;;2.00;;
4963;SDS011;2497;47.410;9.740;2023-04-02T01:02:40;3.57;;;1.90;;
4963;SDS011;2497;47.410;9.740;2023-04-02T01:05:19;3.20;;;1.60;;
4963;SDS011;2497;47.410;9.740;2023-04-02T01:07:54;2.90;;;1.70;;
4963;SDS011;2497;47.410;9.740;2023-04-02T01:10:42;2.90;;;1.93;;
4963;SDS011;2497;47.410;9.740;2023-04-02T01:13:21;2.23;;;1.60;;
4963;SDS011;2497;47.410;9.740;2023-04-02T01:15:55;2.20;;;2.00;;
4963;SDS011;2497;47.410;9.740;2023-04-02T01:18:33;4.30;;;1.90;;
4963;SDS011;2497;47.410;9.740;2023-04-02T01:24:07;2.70;;;1.90;;
4963;SDS011;2497;47.410;9.740;2023-04-02T01:26:53;2.67;;;1.87;;
4963;SDS011;2497;47.410;9.740;2023-04-02T01:29:24;3.80;;;2.07;;
4963;SDS011;2497;47.410;9.740;2023-04-02T01:31:55;2.83;;;1.90;;
4963;SDS011;2497;47.410;9.740;2023-04-02T01:34:24;3.20;;;2.10;;
4963;SDS011;2497;47.410;9.740;2023-04-02T01:36:57;2.37;;;2.03;;
4963;SDS011;2497;47.410;9.740;2023-04-02T01:39:46;2.90;;;1.70;;
4963;SDS011;2497;47.410;9.740;2023-04-02T01:42:23;3.67;;;2.07;;
4963;SDS011;2497;47.410;9.740;2023-04-02T01:45:00;4.30;;;1.90;;
4963;SDS011;2497;47.410;9.740;2023-04-02T01:47:29;3.80;;;2.30;;
4963;SDS011;2497;47.410;9.740;2023-04-02T01:49:59;3.50;;;2.30;;
4963;SDS011;2497;47.410;9.740;2023-04-02T01:52:33;3.40;;;1.90;;
4963;SDS011;2497;47.410;9.740;2023-04-02T01:55:05;3.00;;;2.20;;
4963;SDS011;2497;47.410;9.740;2023-04-02T01:57:33;2.70;;;2.00;;
4963;SDS011;2497;47.410;9.740;2023-04-02T02:00:02;3.77;;;2.07;;
4963;SDS011;2497;47.410;9.740;2023-04-02T02:02:37;2.33;;;1.67;;
4963;SDS011;2497;47.410;9.740;2023-04-02T02:05:08;4.27;;;1.83;;
4963;SDS011;2497;47.410;9.740;2023-04-02T02:07:38;2.30;;;1.50;;
4963;SDS011;2497;47.410;9.740;2023-04-02T02:10:06;3.30;;;1.57;;
4963;SDS011;2497;47.410;9.740;2023-04-02T02:12:39;1.40;;;1.20;;
4963;SDS011;2497;47.410;9.740;2023-04-02T02:15:13;1.80;;;1.30;;
4963;SDS011;2497;47.410;9.740;2023-04-02T02:17:41;3.93;;;1.20;;
4963;SDS011;2497;47.410;9.740;2023-04-02T02:20:09;1.70;;;1.23;;
4963;SDS011;2497;47.410;9.740;2023-04-02T02:22:37;2.83;;;1.43;;
4963;SDS011;2497;47.410;9.740;2023-04-02T02:25:09;2.13;;;1.33;;
4963;SDS011;2497;47.410;9.740;2023-04-02T02:27:46;8.60;;;1.40;;
4963;SDS011;2497;47.410;9.740;2023-04-02T02:30:22;3.03;;;1.57;;
4963;SDS011;2497;47.410;9.740;2023-04-02T02:32:54;1.90;;;1.50;;
4963;SDS011;2497;47.410;9.740;2023-04-02T02:35:27;2.67;;;1.50;;
4963;SDS011;2497;47.410;9.740;2023-04-02T02:38:00;3.63;;;1.43;;
4963;SDS011;2497;47.410;9.740;2023-04-02T02:40:34;2.80;;;1.10;;
4963;SDS011;2497;47.410;9.740;2023-04-02T02:43:05;1.83;;;1.33;;
4963;SDS011;2497;47.410;9.740;2023-04-02T02:45:38;1.50;;;1.10;;
4963;SDS011;2497;47.410;9.740;2023-04-02T02:48:09;2.23;;;1.20;;
4963;SDS011;2497;47.410;9.740;2023-04-02T02:50:41;2.70;;;1.23;;
4963;SDS011;2497;47.410;9.740;2023-04-02T02:53:13;1.33;;;1.20;;
4963;SDS011;2497;47.410;9.740;2023-04-02T02:55:43;2.40;;;1.20;;
4963;SDS011;2497;47.410;9.740;2023-04-02T02:58:13;2.07;;;1.20;;
4963;SDS011;2497;47.410;9.740;2023-04-02T03:00:44;1.80;;;1.30;;
4963;SDS011;2497;47.410;9.740;2023-04-02T03:03:13;2.07;;;1.10;;
4963;SDS011;2497;47.410;9.740;2023-04-02T03:05:47;1.27;;;1.00;;
4963;SDS011;2497;47.410;9.740;2023-04-02T03:08:18;1.67;;;1.00;;
4963;SDS011;2497;47.410;9.740;2023-04-02T03:10:53;2.30;;;1.13;;
4963;SDS011;2497;47.410;9.740;2023-04-02T03:13:26;6.17;;;3.07;;
4963;SDS011;2497;47.410;9.740;2023-04-02T03:15:59;3.20;;;1.20;;
4963;SDS011;2497;47.410;9.740;2023-04-02T03:18:34;2.23;;;1.33;;
4963;SDS011;2497;47.410;9.740;2023-04-02T03:21:10;1.87;;;1.10;;
4963;SDS011;2497;47.410;9.740;2023-04-02T03:23:45;2.47;;;1.30;;
4963;SDS011;2497;47.410;9.740;2023-04-02T03:26:17;4.70;;;1.37;;
4963;SDS011;2497;47.410;9.740;2023-04-02T03:28:49;1.73;;;1.43;;
4963;SDS011;2497;47.410;9.740;2023-04-02T03:31:23;1.30;;;1.10;;
4963;SDS011;2497;47.410;9.740;2023-04-02T03:33:54;3.87;;;1.00;;
4963;SDS011;2497;47.410;9.740;2023-04-02T03:36:25;6.43;;;2.03;;
4963;SDS011;2497;47.410;9.740;2023-04-02T03:38:59;2.33;;;1.13;;
4963;SDS011;2497;47.410;9.740;2023-04-02T03:41:32;5.17;;;1.13;;
4963;SDS011;2497;47.410;9.740;2023-04-02T03:44:06;1.27;;;1.00;;
4963;SDS011;2497;47.410;9.740;2023-04-02T03:46:46;1.13;;;1.03;;
4963;SDS011;2497;47.410;9.740;2023-04-02T03:49:24;2.23;;;1.23;;
4963;SDS011;2497;47.410;9.740;2023-04-02T03:51:56;1.30;;;1.10;;
4963;SDS011;2497;47.410;9.740;2023-04-02T03:54:28;3.57;;;1.57;;
4963;SDS011;2497;47.410;9.740;2023-04-02T03:56:55;2.40;;;1.50;;
4963;SDS011;2497;47.410;9.740;2023-04-02T03:59:27;2.80;;;1.53;;
4963;SDS011;2497;47.410;9.740;2023-04-02T04:02:05;4.07;;;2.13;;
4963;SDS011;2497;47.410;9.740;2023-04-02T04:04:41;2.43;;;1.77;;
4963;SDS011;2497;47.410;9.740;2023-04-02T04:07:14;5.17;;;1.90;;
4963;SDS011;2497;47.410;9.740;2023-04-02T04:09:47;4.90;;;2.10;;
4963;SDS011;2497;47.410;9.740;2023-04-02T04:12:19;3.80;;;2.33;;
4963;SDS011;2497;47.410;9.740;2023-04-02T04:14:57;4.13;;;1.93;;
4963;SDS011;2497;47.410;9.740;2023-04-02T04:17:31;2.90;;;2.20;;
4963;SDS011;2497;47.410;9.740;2023-04-02T04:20:03;9.03;;;2.87;;
4963;SDS011;2497;47.410;9.740;2023-04-02T04:22:40;5.60;;;2.33;;
4963;SDS011;2497;47.410;9.740;2023-04-02T04:25:16;8.03;;;2.80;;
4963;SDS011;2497;47.410;9.740;2023-04-02T04:27:49;4.73;;;2.70;;
4963;SDS011;2497;47.410;9.740;2023-04-02T04:30:23;5.47;;;2.90;;
4963;SDS011;2497;47.410;9.740;2023-04-02T04:32:54;7.00;;;2.90;;
4963;SDS011;2497;47.410;9.740;2023-04-02T04:35:26;4.10;;;2.60;;
4963;SDS011;2497;47.410;9.740;2023-04-02T04:37:57;4.13;;;2.73;;
4963;SDS011;2497;47.410;9.740;2023-04-02T04:40:28;3.67;;;2.70;;
4963;SDS011;2497;47.410;9.740;2023-04-02T04:42:58;4.37;;;2.50;;
4963;SDS011;2497;47.410;9.740;2023-04-02T04:45:33;3.20;;;2.30;;
4963;SDS011;2497;47.410;9.740;2023-04-02T04:48:12;3.50;;;2.20;;
4963;SDS011;2497;47.410;9.740;2023-04-02T04:50:45;5.23;;;2.20;;
4963;SDS011;2497;47.410;9.740;2023-04-02T04:53:15;3.83;;;1.70;;
4963;SDS011;2497;47.410;9.740;2023-04-02T04:55:46;2.00;;;1.60;;
4963;SDS011;2497;47.410;9.740;2023-04-02T04:58:17;4.50;;;1.63;;
4963;SDS011;2497;47.410;9.740;2023-04-02T05:00:58;2.77;;;1.30;;
4963;SDS011;2497;47.410;9.740;2023-04-02T05:03:32;2.47;;;1.33;;
4963;SDS011;2497;47.410;9.740;2023-04-02T05:06:08;1.60;;;1.13;;
4963;SDS011;2497;47.410;9.740;2023-04-02T05:08:38;2.00;;;0.87;;
4963;SDS011;2497;47.410;9.740;2023-04-02T05:11:10;1.43;;;1.30;;
4963;SDS011;2497;47.410;9.740;2023-04-02T05:13:42;10.40;;;4.03;;
4963;SDS011;2497;47.410;9.740;2023-04-02T05:16:15;7.70;;;3.23;;
4963;SDS011;2497;47.410;9.740;2023-04-02T05:18:50;2.17;;;1.37;;
4963;SDS011;2497;47.410;9.740;2023-04-02T05:21:22;3.60;;;1.90;;
4963;SDS011;2497;47.410;9.740;2023-04-02T05:23:53;5.20;;;2.20;;
4963;SDS011;2497;47.410;9.740;2023-04-02T05:26:29;4.63;;;3.40;;
4963;SDS011;2497;47.410;9.740;2023-04-02T05:28:59;5.37;;;1.50;;
4963;SDS011;2497;47.410;9.740;2023-04-02T05:31:34;2.70;;;1.30;;
4963;SDS011;2497;47.410;9.740;2023-04-02T05:34:06;1.73;;;1.10;;
4963;SDS011;2497;47.410;9.740;2023-04-02T05:36:36;3.30;;;1.30;;
4963;SDS011;2497;47.410;9.740;2023-04-02T05:39:07;1.83;;;1.30;;
4963;SDS011;2497;47.410;9.740;2023-04-02T05:41:36;2.87;;;1.60;;
4963;SDS011;2497;47.410;9.740;2023-04-02T05:44:06;2.50;;;1.67;;
4963;SDS011;2497;47.410;9.740;2023-04-02T05:46:40;2.63;;;2.00;;
4963;SDS011;2497;47.410;9.740;2023-04-02T05:49:13;4.87;;;2.53;;
4963;SDS011;2497;47.410;9.740;2023-04-02T05:51:49;2.93;;;2.10;;
4963;SDS011;2497;47.410;9.740;2023-04-02T05:54:22;3.43;;;2.60;;
4963;SDS011;2497;47.410;9.740;2023-04-02T05:56:53;3.80;;;2.50;;
4963;SDS011;2497;47.410;9.740;2023-04-02T05:59:24;3.70;;;2.43;;
4963;SDS011;2497;47.410;9.740;2023-04-02T06:01:56;2.67;;;2.40;;
4963;SDS011;2497;47.410;9.740;2023-04-02T06:04:29;3.40;;;2.43;;
4963;SDS011;2497;47.410;9.740;2023-04-02T06:07:02;6.90;;;2.60;;
4963;SDS011;2497;47.410;9.740;2023-04-02T06:09:37;6.63;;;2.83;;
4963;SDS011;2497;47.410;9.740;2023-04-02T06:12:11;5.13;;;2.70;;
4963;SDS011;2497;47.410;9.740;2023-04-02T06:14:43;3.63;;;2.70;;
4963;SDS011;2497;47.410;9.740;2023-04-02T06:17:12;5.70;;;3.20;;
4963;SDS011;2497;47.410;9.740;2023-04-02T06:19:42;4.93;;;3.00;;
4963;SDS011;2497;47.410;9.740;2023-04-02T06:22:15;3.63;;;2.67;;
4963;SDS011;2497;47.410;9.740;2023-04-02T06:24:47;5.37;;;2.90;;
4963;SDS011;2497;47.410;9.740;2023-04-02T06:27:18;6.27;;;3.93;;
4963;SDS011;2497;47.410;9.740;2023-04-02T06:29:47;6.40;;;3.47;;
4963;SDS011;2497;47.410;9.740;2023-04-02T06:32:17;7.90;;;5.00;;
4963;SDS011;2497;47.410;9.740;2023-04-02T06:34:49;3.77;;;2.50;;
4963;SDS011;2497;47.410;9.740;2023-04-02T06:37:20;6.70;;;3.20;;
4963;SDS011;2497;47.410;9.740;2023-04-02T06:39:51;7.77;;;3.40;;
4963;SDS011;2497;47.410;9.740;2023-04-02T06:42:19;6.47;;;3.10;;
4963;SDS011;2497;47.410;9.740;2023-04-02T06:44:49;5.17;;;3.13;;
4963;SDS011;2497;47.410;9.740;2023-04-02T06:47:19;7.83;;;3.83;;
4963;SDS011;2497;47.410;9.740;2023-04-02T06:49:55;4.97;;;2.67;;
4963;SDS011;2497;47.410;9.740;2023-04-02T06:52:29;3.47;;;2.37;;
4963;SDS011;2497;47.410;9.740;2023-04-02T06:54:59;3.60;;;2.53;;
4963;SDS011;2497;47.410;9.740;2023-04-02T06:57:30;4.30;;;2.20;;
4963;SDS011;2497;47.410;9.740;2023-04-02T06:59:59;4.47;;;2.73;;
4963;SDS011;2497;47.410;9.740;2023-04-02T07:02:32;4.23;;;2.53;;
4963;SDS011;2497;47.410;9.740;2023-04-02T07:05:04;3.03;;;2.30;;
4963;SDS011;2497;47.410;9.740;2023-04-02T07:07:34;4.83;;;2.83;;
4963;SDS011;2497;47.410;9.740;2023-04-02T07:10:01;4.27;;;2.27;;
4963;SDS011;2497;47.410;9.740;2023-04-02T07:12:28;4.20;;;2.80;;
4963;SDS011;2497;47.410;9.740;2023-04-02T07:14:55;4.40;;;2.87;;
4963;SDS011;2497;47.410;9.740;2023-04-02T07:17:22;4.77;;;2.17;;
4963;SDS011;2497;47.410;9.740;2023-04-02T07:19:50;7.07;;;3.77;;
4963;SDS011;2497;47.410;9.740;2023-04-02T07:22:18;3.33;;;2.60;;
4963;SDS011;2497;47.410;9.740;2023-04-02T07:24:46;3.83;;;2.67;;
4963;SDS011;2497;47.410;9.740;2023-04-02T07:27:14;4.23;;;3.20;;
4963;SDS011;2497;47.410;9.740;2023-04-02T07:29:41;8.80;;;3.33;;
4963;SDS011;2497;47.410;9.740;2023-04-02T07:32:08;3.83;;;2.73;;
4963;SDS011;2497;47.410;9.740;2023-04-02T07:34:36;7.97;;;3.30;;
4963;SDS011;2497;47.410;9.740;2023-04-02T07:37:03;7.07;;;2.77;;
4963;SDS011;2497;47.410;9.740;2023-04-02T07:39:32;5.33;;;3.17;;
4963;SDS011;2497;47.410;9.740;2023-04-02T07:42:00;4.37;;;3.13;;
4963;SDS011;2497;47.410;9.740;2023-04-02T07:44:27;4.60;;;3.23;;
4963;SDS011;2497;47.410;9.740;2023-04-02T07:46:54;4.47;;;3.40;;
4963;SDS011;2497;47.410;9.740;2023-04-02T07:49:22;7.63;;;3.50;;
4963;SDS011;2497;47.410;9.740;2023-04-02T07:51:50;6.37;;;3.00;;
4963;SDS011;2497;47.410;9.740;2023-04-02T07:54:17;6.90;;;2.80;;
4963;SDS011;2497;47.410;9.740;2023-04-02T07:56:46;4.37;;;3.30;;
4963;SDS011;2497;47.410;9.740;2023-04-02T07:59:13;4.17;;;2.67;;
4963;SDS011;2497;47.410;9.740;2023-04-02T08:01:40;3.70;;;2.70;;
4963;SDS011;2497;47.410;9.740;2023-04-02T08:04:12;5.10;;;3.23;;
4963;SDS011;2497;47.410;9.740;2023-04-02T08:06:42;4.33;;;3.13;;
4963;SDS011;2497;47.410;9.740;2023-04-02T08:09:09;4.70;;;2.90;;
4963;SDS011;2497;47.410;9.740;2023-04-02T08:11:36;7.93;;;2.90;;
4963;SDS011;2497;47.410;9.740;2023-04-02T08:14:07;9.33;;;3.07;;
4963;SDS011;2497;47.410;9.740;2023-04-02T08:16:44;6.50;;;2.60;;
4963;SDS011;2497;47.410;9.740;2023-04-02T08:19:13;3.80;;;2.40;;
4963;SDS011;2497;47.410;9.740;2023-04-02T08:21:40;4.10;;;2.70;;
4963;SDS011;2497;47.410;9.740;2023-04-02T08:24:07;3.73;;;2.30;;
4963;SDS011;2497;47.410;9.740;2023-04-02T08:26:35;5.00;;;3.00;;
4963;SDS011;2497;47.410;9.740;2023-04-02T08:29:02;3.53;;;2.67;;
4963;SDS011;2497;47.410;9.740;2023-04-02T08:31:31;4.20;;;2.60;;
4963;SDS011;2497;47.410;9.740;2023-04-02T08:33:58;2.90;;;2.57;;
4963;SDS011;2497;47.410;9.740;2023-04-02T08:36:26;5.33;;;2.83;;
4963;SDS011;2497;47.410;9.740;2023-04-02T08:38:55;3.73;;;2.50;;
4963;SDS011;2497;47.410;9.740;2023-04-02T08:41:23;2.50;;;2.27;;
4963;SDS011;2497;47.410;9.740;2023-04-02T08:43:57;4.30;;;2.60;;
4963;SDS011;2497;47.410;9.740;2023-04-02T08:46:31;2.93;;;2.10;;
4963;SDS011;2497;47.410;9.740;2023-04-02T08:49:07;3.77;;;2.30;;
4963;SDS011;2497;47.410;9.740;2023-04-02T08:51:40;4.63;;;2.70;;
4963;SDS011;2497;47.410;9.740;2023-04-02T08:54:10;2.47;;;1.83;;
4963;SDS011;2497;47.410;9.740;2023-04-02T08:56:46;4.53;;;1.90;;
4963;SDS011;2497;47.410;9.740;2023-04-02T08:59:19;2.20;;;1.50;;
4963;SDS011;2497;47.410;9.740;2023-04-02T09:01:59;5.23;;;1.60;;
4963;SDS011;2497;47.410;9.740;2023-04-02T09:04:50;1.80;;;1.00;;
4963;SDS011;2497;47.410;9.740;2023-04-02T09:07:17;1.97;;;1.33;;
4963;SDS011;2497;47.410;9.740;2023-04-02T09:09:46;1.30;;;1.10;;
4963;SDS011;2497;47.410;9.740;2023-04-02T09:12:16;1.47;;;0.97;;
4963;SDS011;2497;47.410;9.740;2023-04-02T09:14:45;2.23;;;1.30;;
4963;SDS011;2497;47.410;9.740;2023-04-02T09:17:23;2.20;;;1.60;;
4963;SDS011;2497;47.410;9.740;2023-04-02T09:19:53;1.43;;;0.90;;
4963;SDS011;2497;47.410;9.740;2023-04-02T09:22:23;2.23;;;1.43;;
4963;SDS011;2497;47.410;9.740;2023-04-02T09:24:52;1.67;;;1.13;;
4963;SDS011;2497;47.410;9.740;2023-04-02T09:27:22;2.93;;;1.60;;
4963;SDS011;2497;47.410;9.740;2023-04-02T09:29:51;1.20;;;0.97;;
4963;SDS011;2497;47.410;9.740;2023-04-02T09:32:24;3.03;;;1.53;;
4963;SDS011;2497;47.410;9.740;2023-04-02T09:35:04;2.10;;;1.07;;
4963;SDS011;2497;47.410;9.740;2023-04-02T09:37:34;1.50;;;1.10;;
4963;SDS011;2497;47.410;9.740;2023-04-02T09:45:41;2.20;;;1.17;;
4963;SDS011;2497;47.410;9.740;2023-04-02T09:48:22;1.70;;;1.10;;
4963;SDS011;2497;47.410;9.740;2023-04-02T09:51:11;1.57;;;1.10;;
4963;SDS011;2497;47.410;9.740;2023-04-02T09:53:40;1.80;;;1.00;;
4963;SDS011;2497;47.410;9.740;2023-04-02T09:56:17;2.20;;;1.30;;
4963;SDS011;2497;47.410;9.740;2023-04-02T09:59:00;1.43;;;1.20;;
4963;SDS011;2497;47.410;9.740;2023-04-02T10:01:30;1.67;;;1.23;;
4963;SDS011;2497;47.410;9.740;2023-04-02T10:04:01;2.57;;;1.20;;
4963;SDS011;2497;47.410;9.740;2023-04-02T10:06:32;1.27;;;1.17;;
4963;SDS011;2497;47.410;9.740;2023-04-02T10:09:17;3.87;;;1.93;;
4963;SDS011;2497;47.410;9.740;2023-04-02T10:11:46;3.33;;;1.40;;
4963;SDS011;2497;47.410;9.740;2023-04-02T10:14:16;3.13;;;1.40;;
4963;SDS011;2497;47.410;9.740;2023-04-02T10:16:47;1.87;;;1.13;;
4963;SDS011;2497;47.410;9.740;2023-04-02T10:19:21;1.87;;;1.23;;
4963;SDS011;2497;47.410;9.740;2023-04-02T10:21:52;1.63;;;1.20;;
4963;SDS011;2497;47.410;9.740;2023-04-02T10:24:20;1.70;;;1.17;;
4963;SDS011;2497;47.410;9.740;2023-04-02T10:26:51;1.87;;;1.10;;
4963;SDS011;2497;47.410;9.740;2023-04-02T10:29:30;2.07;;;1.20;;
4963;SDS011;2497;47.410;9.740;2023-04-02T10:32:07;1.37;;;1.10;;
4963;SDS011;2497;47.410;9.740;2023-04-02T10:34:41;1.97;;;1.40;;
4963;SDS011;2497;47.410;9.740;2023-04-02T10:40:08;2.73;;;1.27;;
4963;SDS011;2497;47.410;9.740;2023-04-02T10:42:40;3.57;;;1.20;;
4963;SDS011;2497;47.410;9.740;2023-04-02T10:45:16;3.70;;;1.80;;
4963;SDS011;2497;47.410;9.740;2023-04-02T10:47:50;1.80;;;1.30;;
4963;SDS011;2497;47.410;9.740;2023-04-02T10:50:30;1.93;;;1.30;;
4963;SDS011;2497;47.410;9.740;2023-04-02T10:53:05;1.20;;;1.03;;
4963;SDS011;2497;47.410;9.740;2023-04-02T10:55:40;6.43;;;1.40;;
4963;SDS011;2497;47.410;9.740;2023-04-02T10:58:15;1.60;;;1.17;;
4963;SDS011;2497;47.410;9.740;2023-04-02T11:00:46;2.37;;;1.60;;
4963;SDS011;2497;47.410;9.740;2023-04-02T11:03:16;4.00;;;1.50;;
4963;SDS011;2497;47.410;9.740;2023-04-02T11:05:50;3.13;;;1.10;;
4963;SDS011;2497;47.410;9.740;2023-04-02T11:08:21;2.10;;;1.40;;
4963;SDS011;2497;47.410;9.740;2023-04-02T11:10:52;1.60;;;1.10;;
4963;SDS011;2497;47.410;9.740;2023-04-02T11:13:24;1.53;;;1.17;;
4963;SDS011;2497;47.410;9.740;2023-04-02T11:15:54;1.40;;;1.07;;
4963;SDS011;2497;47.410;9.740;2023-04-02T11:18:24;2.17;;;1.30;;
4963;SDS011;2497;47.410;9.740;2023-04-02T11:20:58;1.53;;;1.43;;
4963;SDS011;2497;47.410;9.740;2023-04-02T11:23:29;1.77;;;1.10;;
4963;SDS011;2497;47.410;9.740;2023-04-02T11:26:31;1.70;;;1.30;;
4963;SDS011;2497;47.410;9.740;2023-04-02T11:29:09;2.27;;;1.03;;
4963;SDS011;2497;47.410;9.740;2023-04-02T11:32:24;6.60;;;1.40;;
4963;SDS011;2497;47.410;9.740;2023-04-02T11:38:02;1.40;;;0.93;;
4963;SDS011;2497;47.410;9.740;2023-04-02T11:41:07;2.23;;;1.30;;
4963;SDS011;2497;47.410;9.740;2023-04-02T11:43:48;2.13;;;1.23;;
4963;SDS011;2497;47.410;9.740;2023-04-02T11:52:23;2.07;;;1.13;;
4963;SDS011;2497;47.410;9.740;2023-04-02T11:54:58;1.57;;;1.20;;
4963;SDS011;2497;47.410;9.740;2023-04-02T12:00:34;2.00;;;1.13;;
4963;SDS011;2497;47.410;9.740;2023-04-02T12:03:23;1.20;;;1.03;;
4963;SDS011;2497;47.410;9.740;2023-04-02T12:06:04;2.60;;;0.90;;
4963;SDS011;2497;47.410;9.740;2023-04-02T12:08:46;1.43;;;1.00;;
4963;SDS011;2497;47.410;9.740;2023-04-02T12:11:40;4.67;;;1.30;;
4963;SDS011;2497;47.410;9.740;2023-04-02T12:16:56;2.50;;;1.00;;
4963;SDS011;2497;47.410;9.740;2023-04-02T12:19:28;0.87;;;0.80;;
4963;SDS011;2497;47.410;9.740;2023-04-02T12:21:57;1.00;;;0.80;;
4963;SDS011;2497;47.410;9.740;2023-04-02T12:24:26;1.50;;;0.90;;
4963;SDS011;2497;47.410;9.740;2023-04-02T12:29:53;2.83;;;1.07;;
4963;SDS011;2497;47.410;9.740;2023-04-02T12:32:32;1.37;;;0.93;;
4963;SDS011;2497;47.410;9.740;2023-04-02T12:34:59;1.93;;;1.20;;
4963;SDS011;2497;47.410;9.740;2023-04-02T12:37:29;2.40;;;1.20;;
4963;SDS011;2497;47.410;9.740;2023-04-02T12:40:03;1.03;;;0.87;;
4963;SDS011;2497;47.410;9.740;2023-04-02T12:42:45;1.20;;;0.87;;
4963;SDS011;2497;47.410;9.740;2023-04-02T12:45:20;1.03;;;0.93;;
4963;SDS011;2497;47.410;9.740;2023-04-02T12:47:49;1.17;;;0.90;;
4963;SDS011;2497;47.410;9.740;2023-04-02T12:50:24;1.50;;;1.00;;
4963;SDS011;2497;47.410;9.740;2023-04-02T12:53:14;1.23;;;0.87;;
4963;SDS011;2497;47.410;9.740;2023-04-02T12:55:48;1.73;;;1.00;;
4963;SDS011;2497;47.410;9.740;2023-04-02T12:58:24;3.20;;;1.00;;
4963;SDS011;2497;47.410;9.740;2023-04-02T13:01:07;1.13;;;0.93;;
4963;SDS011;2497;47.410;9.740;2023-04-02T13:03:37;1.60;;;0.80;;
4963;SDS011;2497;47.410;9.740;2023-04-02T13:06:15;4.10;;;1.20;;
4963;SDS011;2497;47.410;9.740;2023-04-02T13:08:47;2.10;;;1.00;;
4963;SDS011;2497;47.410;9.740;2023-04-02T13:11:14;3.30;;;1.00;;
4963;SDS011;2497;47.410;9.740;2023-04-02T13:13:44;1.27;;;0.80;;
4963;SDS011;2497;47.410;9.740;2023-04-02T13:16:24;3.13;;;1.30;;
4963;SDS011;2497;47.410;9.740;2023-04-02T13:19:08;1.00;;;0.80;;
4963;SDS011;2497;47.410;9.740;2023-04-02T13:21:39;1.33;;;0.87;;
4963;SDS011;2497;47.410;9.740;2023-04-02T13:24:14;1.80;;;1.10;;
4963;SDS011;2497;47.410;9.740;2023-04-02T13:26:45;2.90;;;0.90;;
4963;SDS011;2497;47.410;9.740;2023-04-02T13:29:24;1.33;;;1.00;;
4963;SDS011;2497;47.410;9.740;2023-04-02T13:31:54;1.20;;;0.83;;
4963;SDS011;2497;47.410;9.740;2023-04-02T13:34:23;1.00;;;0.87;;
4963;SDS011;2497;47.410;9.740;2023-04-02T13:36:51;1.30;;;0.90;;
4963;SDS011;2497;47.410;9.740;2023-04-02T13:39:18;1.93;;;1.03;;
4963;SDS011;2497;47.410;9.740;2023-04-02T13:41:46;2.27;;;1.17;;
4963;SDS011;2497;47.410;9.740;2023-04-02T13:44:19;2.40;;;0.93;;
4963;SDS011;2497;47.410;9.740;2023-04-02T13:46:50;1.00;;;0.90;;
4963;SDS011;2497;47.410;9.740;2023-04-02T13:49:18;1.20;;;0.90;;
4963;SDS011;2497;47.410;9.740;2023-04-02T13:51:46;2.90;;;0.90;;
4963;SDS011;2497;47.410;9.740;2023-04-02T13:54:18;1.00;;;0.90;;
4963;SDS011;2497;47.410;9.740;2023-04-02T13:56:48;0.93;;;0.80;;
4963;SDS011;2497;47.410;9.740;2023-04-02T13:59:16;4.30;;;1.03;;
4963;SDS011;2497;47.410;9.740;2023-04-02T14:01:44;1.67;;;0.80;;
4963;SDS011;2497;47.410;9.740;2023-04-02T14:04:17;1.87;;;0.97;;
4963;SDS011;2497;47.410;9.740;2023-04-02T14:09:46;1.70;;;0.93;;
4963;SDS011;2497;47.410;9.740;2023-04-02T14:12:27;1.27;;;0.90;;
4963;SDS011;2497;47.410;9.740;2023-04-02T14:15:15;1.00;;;0.80;;
4963;SDS011;2497;47.410;9.740;2023-04-02T14:21:05;1.93;;;1.10;;
4963;SDS011;2497;47.410;9.740;2023-04-02T14:23:44;1.10;;;0.83;;
4963;SDS011;2497;47.410;9.740;2023-04-02T14:26:21;0.90;;;0.80;;
4963;SDS011;2497;47.410;9.740;2023-04-02T14:28:57;2.10;;;1.00;;
4963;SDS011;2497;47.410;9.740;2023-04-02T14:31:32;3.13;;;1.20;;
4963;SDS011;2497;47.410;9.740;2023-04-02T14:34:05;1.10;;;0.80;;
4963;SDS011;2497;47.410;9.740;2023-04-02T14:36:44;2.27;;;1.03;;
4963;SDS011;2497;47.410;9.740;2023-04-02T14:39:23;1.30;;;0.97;;
4963;SDS011;2497;47.410;9.740;2023-04-02T14:42:03;1.20;;;0.80;;
4963;SDS011;2497;47.410;9.740;2023-04-02T14:44:38;1.40;;;0.80;;
4963;SDS011;2497;47.410;9.740;2023-04-02T14:47:13;1.53;;;0.97;;
4963;SDS011;2497;47.410;9.740;2023-04-02T14:49:44;1.30;;;1.07;;
4963;SDS011;2497;47.410;9.740;2023-04-02T14:52:20;1.40;;;0.80;;
4963;SDS011;2497;47.410;9.740;2023-04-02T14:54:51;2.03;;;0.87;;
4963;SDS011;2497;47.410;9.740;2023-04-02T14:57:22;1.53;;;1.27;;
4963;SDS011;2497;47.410;9.740;2023-04-02T14:59:54;4.73;;;1.10;;
4963;SDS011;2497;47.410;9.740;2023-04-02T15:02:28;1.33;;;0.70;;
4963;SDS011;2497;47.410;9.740;2023-04-02T15:05:04;1.10;;;1.00;;
4963;SDS011;2497;47.410;9.740;2023-04-02T15:07:44;1.00;;;0.80;;
4963;SDS011;2497;47.410;9.740;2023-04-02T15:10:19;1.53;;;0.80;;
4963;SDS011;2497;47.410;9.740;2023-04-02T15:12:52;2.23;;;0.80;;
4963;SDS011;2497;47.410;9.740;2023-04-02T15:15:25;1.93;;;0.80;;
4963;SDS011;2497;47.410;9.740;2023-04-02T15:18:00;1.20;;;0.90;;
4963;SDS011;2497;47.410;9.740;2023-04-02T15:20:30;1.43;;;1.00;;
4963;SDS011;2497;47.410;9.740;2023-04-02T15:23:07;1.23;;;0.87;;
4963;SDS011;2497;47.410;9.740;2023-04-02T15:25:42;0.90;;;0.70;;
4963;SDS011;2497;47.410;9.740;2023-04-02T15:28:18;1.93;;;1.10;;
4963;SDS011;2497;47.410;9.740;2023-04-02T15:30:51;1.77;;;0.80;;
4963;SDS011;2497;47.410;9.740;2023-04-02T15:42:15;2.67;;;1.00;;
4963;SDS011;2497;47.410;9.740;2023-04-02T15:44:55;2.70;;;1.33;;
4963;SDS011;2497;47.410;9.740;2023-04-02T15:47:43;1.73;;;0.80;;
4963;SDS011;2497;47.410;9.740;2023-04-02T15:50:29;1.60;;;1.00;;
4963;SDS011;2497;47.410;9.740;2023-04-02T15:53:09;1.70;;;1.00;;
4963;SDS011;2497;47.410;9.740;2023-04-02T15:55:53;1.50;;;0.93;;
4963;SDS011;2497;47.410;9.740;2023-04-02T15:58:29;1.40;;;1.00;;
4963;SDS011;2497;47.410;9.740;2023-04-02T16:01:13;1.90;;;1.40;;
4963;SDS011;2497;47.410;9.740;2023-04-02T16:06:42;1.00;;;0.80;;
4963;SDS011;2497;47.410;9.740;2023-04-02T16:09:26;1.70;;;1.10;;
4963;SDS011;2497;47.410;9.740;2023-04-02T16:11:58;1.20;;;0.90;;
4963;SDS011;2497;47.410;9.740;2023-04-02T16:14:36;6.37;;;1.30;;
4963;SDS011;2497;47.410;9.740;2023-04-02T16:17:09;2.70;;;1.43;;
4963;SDS011;2497;47.410;9.740;2023-04-02T16:19:42;1.40;;;1.00;;
4963;SDS011;2497;47.410;9.740;2023-04-02T16:22:17;1.33;;;1.10;;
4963;SDS011;2497;47.410;9.740;2023-04-02T16:24:49;1.20;;;1.00;;
4963;SDS011;2497;47.410;9.740;2023-04-02T16:27:25;1.70;;;1.20;;
4963;SDS011;2497;47.410;9.740;2023-04-02T16:29:58;1.50;;;0.90;;
4963;SDS011;2497;47.410;9.740;2023-04-02T16:32:43;2.90;;;1.30;;
4963;SDS011;2497;47.410;9.740;2023-04-02T16:35:20;3.23;;;1.30;;
4963;SDS011;2497;47.410;9.740;2023-04-02T16:37:57;1.87;;;1.10;;
4963;SDS011;2497;47.410;9.740;2023-04-02T16:40:35;1.33;;;0.90;;